sensor_id;sensor_type;location;lat;lon;timestamp;pressure;altitude;pressure_sealevel;temperature;humidity
17781;BME280;8498;52.516;13.790;2024-01-27T00:01:45;101954.16;;;6.69;86.23
17781;BME280;8498;52.516;13.790;2024-01-27T00:07:07;101953.16;;;6.73;85.95
17781;BME280;8498;52.516;13.790;2024-01-27T00:12:29;101942.97;;;6.60;85.52
17781;BME280;8498;52.516;13.790;2024-01-27T00:17:51;101957.97;;;6.60;84.88
17781;BME280;8498;52.516;13.790;2024-01-27T00:23:14;101967.41;;;6.67;84.26
17781;BME280;8498;52.516;13.790;2024-01-27T00:28:36;101952.72;;;6.58;83.81
17781;BME280;8498;52.516;13.790;2024-01-27T00:33:58;101973.94;;;6.55;83.49
17781;BME280;8498;52.516;13.790;2024-01-27T00:39:20;101973.84;;;6.58;83.58
17781;BME280;8498;52.516;13.790;2024-01-27T00:44:43;101969.69;;;6.51;83.34
17781;BME280;8498;52.516;13.790;2024-01-27T00:50:05;101980.06;;;6.56;82.81
17781;BME280;8498;52.516;13.790;2024-01-27T00:55:30;101993.44;;;6.51;82.84
17781;BME280;8498;52.516;13.790;2024-01-27T01:00:52;101980.56;;;6.41;82.94
17781;BME280;8498;52.516;13.790;2024-01-27T01:06:14;101989.38;;;6.40;82.78
17781;BME280;8498;52.516;13.790;2024-01-27T01:11:36;101985.97;;;6.36;82.63
17781;BME280;8498;52.516;13.790;2024-01-27T01:17:01;101993.88;;;6.36;82.50
17781;BME280;8498;52.516;13.790;2024-01-27T01:22:23;101995.63;;;6.37;82.77
17781;BME280;8498;52.516;13.790;2024-01-27T01:27:46;101991.16;;;6.39;82.03
17781;BME280;8498;52.516;13.790;2024-01-27T01:33:10;101993.16;;;6.31;82.03
17781;BME280;8498;52.516;13.790;2024-01-27T01:38:32;102004.56;;;6.33;81.90
17781;BME280;8498;52.516;13.790;2024-01-27T01:43:54;102006.44;;;6.28;81.54
17781;BME280;8498;52.516;13.790;2024-01-27T01:49:16;102016.91;;;6.31;81.30
17781;BME280;8498;52.516;13.790;2024-01-27T01:54:38;102012.50;;;6.32;81.14
17781;BME280;8498;52.516;13.790;2024-01-27T02:00:01;102036.38;;;6.27;80.80
17781;BME280;8498;52.516;13.790;2024-01-27T02:05:32;102031.97;;;6.28;80.94
17781;BME280;8498;52.516;13.790;2024-01-27T02:10:55;102034.72;;;6.23;81.09
17781;BME280;8498;52.516;13.790;2024-01-27T02:16:17;102047.13;;;6.21;80.86
17781;BME280;8498;52.516;13.790;2024-01-27T02:21:40;102053.88;;;6.31;80.96
17781;BME280;8498;52.516;13.790;2024-01-27T02:27:02;102050.25;;;6.34;80.59
17781;BME280;8498;52.516;13.790;2024-01-27T02:32:24;102038.13;;;6.28;81.19
17781;BME280;8498;52.516;13.790;2024-01-27T02:37:46;102050.56;;;6.23;81.87
17781;BME280;8498;52.516;13.790;2024-01-27T02:43:08;102055.00;;;6.22;82.87
17781;BME280;8498;52.516;13.790;2024-01-27T02:48:30;102057.84;;;6.15;83.14
17781;BME280;8498;52.516;13.790;2024-01-27T02:53:52;102060.56;;;6.12;83.12
17781;BME280;8498;52.516;13.790;2024-01-27T02:59:14;102073.66;;;6.15;83.62
17781;BME280;8498;52.516;13.790;2024-01-27T03:04:36;102080.94;;;6.07;84.17
17781;BME280;8498;52.516;13.790;2024-01-27T03:09:59;102091.47;;;6.07;85.12
17781;BME280;8498;52.516;13.790;2024-01-27T03:15:21;102107.00;;;6.19;85.23
17781;BME280;8498;52.516;13.790;2024-01-27T03:20:43;102107.78;;;6.22;85.58
17781;BME280;8498;52.516;13.790;2024-01-27T03:26:05;102099.91;;;6.21;85.99
17781;BME280;8498;52.516;13.790;2024-01-27T03:31:31;102099.78;;;6.24;86.01
17781;BME280;8498;52.516;13.790;2024-01-27T03:36:53;102109.63;;;6.19;86.25
17781;BME280;8498;52.516;13.790;2024-01-27T03:42:16;102105.00;;;6.27;85.83
17781;BME280;8498;52.516;13.790;2024-01-27T03:47:38;102113.91;;;6.23;86.26
17781;BME280;8498;52.516;13.790;2024-01-27T03:53:01;102117.34;;;6.25;86.42
17781;BME280;8498;52.516;13.790;2024-01-27T03:58:23;102127.22;;;6.18;85.90
17781;BME280;8498;52.516;13.790;2024-01-27T04:03:45;102126.19;;;6.24;85.67
17781;BME280;8498;52.516;13.790;2024-01-27T04:09:08;102138.59;;;6.22;85.94
17781;BME280;8498;52.516;13.790;2024-01-27T04:14:30;102163.13;;;6.24;85.96
17781;BME280;8498;52.516;13.790;2024-01-27T04:19:52;102168.41;;;6.24;87.00
17781;BME280;8498;52.516;13.790;2024-01-27T04:25:15;102194.06;;;6.19;86.89
17781;BME280;8498;52.516;13.790;2024-01-27T04:30:37;102203.63;;;6.23;87.18
17781;BME280;8498;52.516;13.790;2024-01-27T04:35:59;102203.41;;;6.32;87.89
17781;BME280;8498;52.516;13.790;2024-01-27T04:41:21;102216.97;;;6.17;87.97
17781;BME280;8498;52.516;13.790;2024-01-27T04:46:43;102234.66;;;6.13;88.84
17781;BME280;8498;52.516;13.790;2024-01-27T04:52:05;102240.63;;;6.21;88.85
17781;BME280;8498;52.516;13.790;2024-01-27T04:57:27;102240.50;;;6.26;88.95
17781;BME280;8498;52.516;13.790;2024-01-27T05:02:50;102242.28;;;6.25;88.65
17781;BME280;8498;52.516;13.790;2024-01-27T05:08:12;102235.38;;;6.20;89.00
17781;BME280;8498;52.516;13.790;2024-01-27T05:13:34;102244.03;;;6.25;89.12
17781;BME280;8498;52.516;13.790;2024-01-27T05:18:56;102252.78;;;6.27;89.31
17781;BME280;8498;52.516;13.790;2024-01-27T05:24:18;102260.78;;;6.24;89.82
17781;BME280;8498;52.516;13.790;2024-01-27T05:29:41;102271.47;;;6.19;90.22
17781;BME280;8498;52.516;13.790;2024-01-27T05:35:03;102268.88;;;6.16;90.60
17781;BME280;8498;52.516;13.790;2024-01-27T05:40:26;102277.06;;;6.06;91.46
17781;BME280;8498;52.516;13.790;2024-01-27T05:45:48;102269.94;;;6.09;91.50
17781;BME280;8498;52.516;13.790;2024-01-27T05:51:11;102283.19;;;6.08;91.92
17781;BME280;8498;52.516;13.790;2024-01-27T05:56:34;102283.97;;;6.11;92.07
17781;BME280;8498;52.516;13.790;2024-01-27T06:01:58;102300.59;;;6.15;92.33
17781;BME280;8498;52.516;13.790;2024-01-27T06:07:20;102294.34;;;6.19;92.14
17781;BME280;8498;52.516;13.790;2024-01-27T06:12:42;102315.81;;;6.04;93.11
17781;BME280;8498;52.516;13.790;2024-01-27T06:18:04;102314.69;;;6.14;93.18
17781;BME280;8498;52.516;13.790;2024-01-27T06:23:27;102342.19;;;6.04;93.33
17781;BME280;8498;52.516;13.790;2024-01-27T06:28:49;102326.06;;;6.16;93.32
17781;BME280;8498;52.516;13.790;2024-01-27T06:34:12;102346.28;;;6.17;93.08
17781;BME280;8498;52.516;13.790;2024-01-27T06:39:34;102347.97;;;6.21;92.88
17781;BME280;8498;52.516;13.790;2024-01-27T06:44:56;102362.06;;;6.20;92.91
17781;BME280;8498;52.516;13.790;2024-01-27T06:50:18;102382.88;;;6.32;92.65
17781;BME280;8498;52.516;13.790;2024-01-27T06:55:40;102388.28;;;6.26;92.15
17781;BME280;8498;52.516;13.790;2024-01-27T07:01:07;102372.25;;;6.35;91.90
17781;BME280;8498;52.516;13.790;2024-01-27T07:06:29;102398.56;;;6.38;91.96
17781;BME280;8498;52.516;13.790;2024-01-27T07:11:51;102401.25;;;6.37;92.28
17781;BME280;8498;52.516;13.790;2024-01-27T07:17:14;102393.00;;;6.50;92.05
17781;BME280;8498;52.516;13.790;2024-01-27T07:22:36;102396.66;;;6.45;92.22
17781;BME280;8498;52.516;13.790;2024-01-27T07:27:58;102421.88;;;6.58;92.42
17781;BME280;8498;52.516;13.790;2024-01-27T07:33:20;102437.69;;;6.58;91.83
17781;BME280;8498;52.516;13.790;2024-01-27T07:38:43;102440.38;;;6.56;92.13
17781;BME280;8498;52.516;13.790;2024-01-27T07:44:11;102447.47;;;6.54;92.91
17781;BME280;8498;52.516;13.790;2024-01-27T07:49:33;102455.28;;;6.59;92.40
17781;BME280;8498;52.516;13.790;2024-01-27T07:54:55;102457.00;;;6.61;92.71
17781;BME280;8498;52.516;13.790;2024-01-27T08:00:17;102471.72;;;6.72;92.45
17781;BME280;8498;52.516;13.790;2024-01-27T08:05:40;102468.34;;;6.65;93.18
17781;BME280;8498;52.516;13.790;2024-01-27T08:10:54;102473.09;;;6.88;92.58
17781;BME280;8498;52.516;13.790;2024-01-27T08:16:16;102474.69;;;6.95;91.71
17781;BME280;8498;52.516;13.790;2024-01-27T08:21:38;102459.03;;;6.86;92.27
17781;BME280;8498;52.516;13.790;2024-01-27T08:27:01;102466.16;;;6.84;92.03
17781;BME280;8498;52.516;13.790;2024-01-27T08:32:23;102470.19;;;6.98;91.69
17781;BME280;8498;52.516;13.790;2024-01-27T08:37:46;102482.38;;;7.04;91.08
17781;BME280;8498;52.516;13.790;2024-01-27T08:43:08;102489.50;;;7.00;91.49
17781;BME280;8498;52.516;13.790;2024-01-27T08:48:32;102494.38;;;7.17;91.00
17781;BME280;8498;52.516;13.790;2024-01-27T08:53:54;102502.53;;;7.08;90.92
17781;BME280;8498;52.516;13.790;2024-01-27T08:59:16;102509.41;;;7.15;90.77
17781;BME280;8498;52.516;13.790;2024-01-27T09:04:38;102520.53;;;7.28;89.89
17781;BME280;8498;52.516;13.790;2024-01-27T09:10:01;102518.88;;;7.25;89.67
17781;BME280;8498;52.516;13.790;2024-01-27T09:15:23;102514.06;;;7.40;89.43
17781;BME280;8498;52.516;13.790;2024-01-27T09:20:46;102525.16;;;7.54;88.53
17781;BME280;8498;52.516;13.790;2024-01-27T09:26:08;102551.91;;;7.43;88.58
17781;BME280;8498;52.516;13.790;2024-01-27T09:31:30;102543.34;;;7.67;88.47
17781;BME280;8498;52.516;13.790;2024-01-27T09:36:52;102550.53;;;7.61;87.34
17781;BME280;8498;52.516;13.790;2024-01-27T09:42:14;102549.59;;;7.63;87.63
17781;BME280;8498;52.516;13.790;2024-01-27T09:47:39;102551.72;;;7.83;86.64
17781;BME280;8498;52.516;13.790;2024-01-27T09:53:03;102566.66;;;7.86;86.29
17781;BME280;8498;52.516;13.790;2024-01-27T09:58:30;102569.59;;;8.07;85.58
17781;BME280;8498;52.516;13.790;2024-01-27T10:03:54;102581.16;;;8.03;84.64
17781;BME280;8498;52.516;13.790;2024-01-27T10:09:17;102577.78;;;7.98;85.07
17781;BME280;8498;52.516;13.790;2024-01-27T10:14:40;102578.50;;;8.03;84.58
17781;BME280;8498;52.516;13.790;2024-01-27T10:20:04;102578.38;;;8.09;83.88
17781;BME280;8498;52.516;13.790;2024-01-27T10:25:26;102580.75;;;8.19;83.99
17781;BME280;8498;52.516;13.790;2024-01-27T10:30:48;102584.41;;;8.13;83.92
17781;BME280;8498;52.516;13.790;2024-01-27T10:36:10;102581.47;;;8.24;83.01
17781;BME280;8498;52.516;13.790;2024-01-27T10:41:32;102584.69;;;8.36;82.12
17781;BME280;8498;52.516;13.790;2024-01-27T10:47:01;102595.47;;;8.29;82.48
17781;BME280;8498;52.516;13.790;2024-01-27T10:52:28;102586.56;;;8.31;82.46
17781;BME280;8498;52.516;13.790;2024-01-27T10:57:52;102601.25;;;8.43;81.13
17781;BME280;8498;52.516;13.790;2024-01-27T11:03:18;102602.66;;;8.56;80.87
17781;BME280;8498;52.516;13.790;2024-01-27T11:08:41;102605.66;;;8.44;80.00
17781;BME280;8498;52.516;13.790;2024-01-27T11:14:06;102603.44;;;8.27;80.59
17781;BME280;8498;52.516;13.790;2024-01-27T11:19:28;102607.75;;;8.62;79.03
17781;BME280;8498;52.516;13.790;2024-01-27T11:24:50;102616.81;;;8.55;78.90
17781;BME280;8498;52.516;13.790;2024-01-27T11:30:27;102615.78;;;8.61;78.76
17781;BME280;8498;52.516;13.790;2024-01-27T11:36:00;102623.50;;;8.68;79.16
17781;BME280;8498;52.516;13.790;2024-01-27T11:41:27;102629.34;;;8.50;77.95
17781;BME280;8498;52.516;13.790;2024-01-27T11:46:49;102630.84;;;8.59;78.07
17781;BME280;8498;52.516;13.790;2024-01-27T11:52:11;102626.59;;;8.52;78.51
17781;BME280;8498;52.516;13.790;2024-01-27T11:57:33;102637.34;;;8.47;78.86
17781;BME280;8498;52.516;13.790;2024-01-27T12:02:56;102638.25;;;8.46;79.70
17781;BME280;8498;52.516;13.790;2024-01-27T12:08:18;102642.34;;;8.58;79.48
17781;BME280;8498;52.516;13.790;2024-01-27T12:13:41;102652.16;;;8.54;80.06
17781;BME280;8498;52.516;13.790;2024-01-27T12:19:03;102668.56;;;8.67;78.79
17781;BME280;8498;52.516;13.790;2024-01-27T12:24:25;102674.66;;;8.70;78.17
17781;BME280;8498;52.516;13.790;2024-01-27T12:29:48;102681.78;;;8.68;77.76
17781;BME280;8498;52.516;13.790;2024-01-27T12:35:12;102676.41;;;8.71;77.77
17781;BME280;8498;52.516;13.790;2024-01-27T12:40:34;102685.06;;;8.45;79.05
17781;BME280;8498;52.516;13.790;2024-01-27T12:45:57;102695.69;;;8.44;79.30
17781;BME280;8498;52.516;13.790;2024-01-27T12:51:19;102696.47;;;8.49;78.24
17781;BME280;8498;52.516;13.790;2024-01-27T12:56:41;102703.28;;;8.58;78.08
17781;BME280;8498;52.516;13.790;2024-01-27T13:02:04;102694.72;;;8.48;79.15
17781;BME280;8498;52.516;13.790;2024-01-27T13:07:25;102707.09;;;8.48;80.58
17781;BME280;8498;52.516;13.790;2024-01-27T13:12:47;102703.13;;;8.62;80.46
17781;BME280;8498;52.516;13.790;2024-01-27T13:18:10;102711.06;;;8.64;81.83
17781;BME280;8498;52.516;13.790;2024-01-27T13:23:32;102705.13;;;8.54;81.37
17781;BME280;8498;52.516;13.790;2024-01-27T13:28:55;102705.13;;;8.54;81.48
17781;BME280;8498;52.516;13.790;2024-01-27T13:34:17;102703.91;;;8.67;81.35
17781;BME280;8498;52.516;13.790;2024-01-27T13:39:39;102707.34;;;9.02;80.41
17781;BME280;8498;52.516;13.790;2024-01-27T13:45:01;102716.34;;;9.24;78.55
17781;BME280;8498;52.516;13.790;2024-01-27T13:50:23;102727.91;;;9.23;75.90
17781;BME280;8498;52.516;13.790;2024-01-27T13:55:48;102715.47;;;8.94;77.17
17781;BME280;8498;52.516;13.790;2024-01-27T14:01:11;102727.78;;;9.26;77.03
17781;BME280;8498;52.516;13.790;2024-01-27T14:06:34;102732.72;;;9.38;75.61
17781;BME280;8498;52.516;13.790;2024-01-27T14:11:56;102736.00;;;9.18;75.95
17781;BME280;8498;52.516;13.790;2024-01-27T14:17:19;102738.69;;;8.86;76.98
17781;BME280;8498;52.516;13.790;2024-01-27T14:22:44;102743.06;;;8.56;78.29
17781;BME280;8498;52.516;13.790;2024-01-27T14:28:06;102740.66;;;8.47;79.26
17781;BME280;8498;52.516;13.790;2024-01-27T14:33:29;102754.31;;;8.30;80.81
17781;BME280;8498;52.516;13.790;2024-01-27T14:38:51;102750.63;;;8.37;80.57
17781;BME280;8498;52.516;13.790;2024-01-27T14:44:14;102757.75;;;8.35;80.86
17781;BME280;8498;52.516;13.790;2024-01-27T14:49:36;102772.69;;;8.38;81.29
17781;BME280;8498;52.516;13.790;2024-01-27T14:54:59;102773.56;;;8.38;81.71
17781;BME280;8498;52.516;13.790;2024-01-27T15:00:22;102780.63;;;8.38;81.75
17781;BME280;8498;52.516;13.790;2024-01-27T15:05:44;102777.88;;;8.41;82.39
17781;BME280;8498;52.516;13.790;2024-01-27T15:11:06;102801.06;;;8.33;82.73
17781;BME280;8498;52.516;13.790;2024-01-27T15:16:28;102796.69;;;8.30;83.45
17781;BME280;8498;52.516;13.790;2024-01-27T15:21:53;102795.16;;;8.20;83.97
17781;BME280;8498;52.516;13.790;2024-01-27T15:27:19;102798.88;;;8.13;84.60
17781;BME280;8498;52.516;13.790;2024-01-27T15:32:41;102799.91;;;8.07;85.05
17781;BME280;8498;52.516;13.790;2024-01-27T15:38:03;102809.84;;;7.98;85.57
17781;BME280;8498;52.516;13.790;2024-01-27T15:43:25;102815.50;;;7.81;86.78
17781;BME280;8498;52.516;13.790;2024-01-27T15:48:47;102813.81;;;7.79;86.69
17781;BME280;8498;52.516;13.790;2024-01-27T15:54:09;102827.19;;;7.71;87.14
17781;BME280;8498;52.516;13.790;2024-01-27T15:59:32;102836.38;;;7.55;87.75
17781;BME280;8498;52.516;13.790;2024-01-27T16:04:54;102833.84;;;7.49;88.56
17781;BME280;8498;52.516;13.790;2024-01-27T16:10:17;102847.19;;;7.44;88.64
17781;BME280;8498;52.516;13.790;2024-01-27T16:15:39;102846.41;;;7.37;89.25
17781;BME280;8498;52.516;13.790;2024-01-27T16:21:01;102851.84;;;7.31;89.58
17781;BME280;8498;52.516;13.790;2024-01-27T16:26:24;102849.25;;;7.28;89.98
17781;BME280;8498;52.516;13.790;2024-01-27T16:31:48;102861.66;;;7.26;89.85
17781;BME280;8498;52.516;13.790;2024-01-27T16:37:10;102857.19;;;7.27;90.50
17781;BME280;8498;52.516;13.790;2024-01-27T16:42:33;102859.75;;;7.31;90.50
17781;BME280;8498;52.516;13.790;2024-01-27T16:47:56;102852.56;;;7.38;90.41
17781;BME280;8498;52.516;13.790;2024-01-27T16:53:19;102868.53;;;7.33;90.53
17781;BME280;8498;52.516;13.790;2024-01-27T16:58:41;102863.25;;;7.33;89.99
17781;BME280;8498;52.516;13.790;2024-01-27T17:04:11;102873.16;;;7.24;90.37
17781;BME280;8498;52.516;13.790;2024-01-27T17:09:36;102860.38;;;7.46;94.71
17781;BME280;8498;52.516;13.790;2024-01-27T17:14:59;102857.97;;;7.33;90.59
17781;BME280;8498;52.516;13.790;2024-01-27T17:20:22;102863.50;;;7.21;89.88
17781;BME280;8498;52.516;13.790;2024-01-27T17:25:45;102873.38;;;7.12;90.07
17781;BME280;8498;52.516;13.790;2024-01-27T17:31:07;102878.84;;;7.01;91.08
17781;BME280;8498;52.516;13.790;2024-01-27T17:36:29;102869.34;;;6.91;91.65
17781;BME280;8498;52.516;13.790;2024-01-27T17:41:51;102879.09;;;6.87;91.24
17781;BME280;8498;52.516;13.790;2024-01-27T17:47:13;102874.88;;;6.77;91.47
17781;BME280;8498;52.516;13.790;2024-01-27T17:52:36;102881.88;;;6.80;91.78
17781;BME280;8498;52.516;13.790;2024-01-27T17:58:00;102887.16;;;6.80;91.66
17781;BME280;8498;52.516;13.790;2024-01-27T18:03:22;102889.88;;;6.75;91.24
17781;BME280;8498;52.516;13.790;2024-01-27T18:08:45;102889.97;;;6.71;91.64
17781;BME280;8498;52.516;13.790;2024-01-27T18:14:07;102900.63;;;6.64;91.83
17781;BME280;8498;52.516;13.790;2024-01-27T18:19:29;102889.28;;;6.59;91.63
17781;BME280;8498;52.516;13.790;2024-01-27T18:24:51;102894.72;;;6.50;91.70
17781;BME280;8498;52.516;13.790;2024-01-27T18:30:15;102904.69;;;6.30;91.75
17781;BME280;8498;52.516;13.790;2024-01-27T18:35:38;102904.75;;;6.27;92.47
17781;BME280;8498;52.516;13.790;2024-01-27T18:41:00;102903.00;;;6.24;92.62
17781;BME280;8498;52.516;13.790;2024-01-27T18:46:23;102919.81;;;6.19;92.46
17781;BME280;8498;52.516;13.790;2024-01-27T18:51:45;102934.28;;;5.91;92.50
17781;BME280;8498;52.516;13.790;2024-01-27T18:57:07;102945.97;;;5.67;94.24
17781;BME280;8498;52.516;13.790;2024-01-27T19:02:31;102951.59;;;5.35;94.51
17781;BME280;8498;52.516;13.790;2024-01-27T19:07:54;102956.19;;;5.14;95.89
17781;BME280;8498;52.516;13.790;2024-01-27T19:13:16;102958.03;;;5.06;96.29
17781;BME280;8498;52.516;13.790;2024-01-27T19:18:38;102959.09;;;4.79;96.02
17781;BME280;8498;52.516;13.790;2024-01-27T19:24:00;102965.38;;;4.65;97.39
17781;BME280;8498;52.516;13.790;2024-01-27T19:29:22;102975.97;;;4.54;97.45
17781;BME280;8498;52.516;13.790;2024-01-27T19:34:45;102973.38;;;4.51;97.99
17781;BME280;8498;52.516;13.790;2024-01-27T19:40:08;102971.47;;;4.73;98.19
17781;BME280;8498;52.516;13.790;2024-01-27T19:45:31;102976.00;;;4.53;97.87
17781;BME280;8498;52.516;13.790;2024-01-27T19:50:53;102978.50;;;4.69;99.74
17781;BME280;8498;52.516;13.790;2024-01-27T19:56:16;102989.09;;;4.63;98.63
17781;BME280;8498;52.516;13.790;2024-01-27T20:01:38;102986.56;;;4.45;98.92
17781;BME280;8498;52.516;13.790;2024-01-27T20:07:00;102985.75;;;4.32;99.50
17781;BME280;8498;52.516;13.790;2024-01-27T20:12:23;102981.44;;;4.19;99.49
17781;BME280;8498;52.516;13.790;2024-01-27T20:17:45;102985.03;;;4.03;100.00
17781;BME280;8498;52.516;13.790;2024-01-27T20:23:07;102990.34;;;3.94;100.00
17781;BME280;8498;52.516;13.790;2024-01-27T20:28:29;103003.50;;;3.82;99.93
17781;BME280;8498;52.516;13.790;2024-01-27T20:33:51;103013.16;;;3.77;100.00
17781;BME280;8498;52.516;13.790;2024-01-27T20:39:14;103008.84;;;3.60;100.00
17781;BME280;8498;52.516;13.790;2024-01-27T20:44:37;103010.59;;;3.45;100.00
17781;BME280;8498;52.516;13.790;2024-01-27T20:49:59;103016.75;;;3.41;100.00
17781;BME280;8498;52.516;13.790;2024-01-27T20:55:25;103022.00;;;3.39;100.00
17781;BME280;8498;52.516;13.790;2024-01-27T21:00:48;103023.75;;;3.37;100.00
17781;BME280;8498;52.516;13.790;2024-01-27T21:06:10;103022.88;;;3.26;100.00
17781;BME280;8498;52.516;13.790;2024-01-27T21:11:33;103027.28;;;3.21;100.00
17781;BME280;8498;52.516;13.790;2024-01-27T21:16:55;103035.13;;;3.13;100.00
17781;BME280;8498;52.516;13.790;2024-01-27T21:22:17;103052.66;;;3.05;100.00
17781;BME280;8498;52.516;13.790;2024-01-27T21:27:39;103043.00;;;2.97;100.00
17781;BME280;8498;52.516;13.790;2024-01-27T21:33:02;103039.50;;;2.79;100.00
17781;BME280;8498;52.516;13.790;2024-01-27T21:38:25;103045.59;;;2.66;100.00
17781;BME280;8498;52.516;13.790;2024-01-27T21:43:47;103038.59;;;2.59;100.00
17781;BME280;8498;52.516;13.790;2024-01-27T21:49:11;103043.78;;;2.47;100.00
17781;BME280;8498;52.516;13.790;2024-01-27T21:54:33;103049.84;;;2.34;100.00
17781;BME280;8498;52.516;13.790;2024-01-27T21:59:57;103059.50;;;2.36;100.00
17781;BME280;8498;52.516;13.790;2024-01-27T22:05:20;103061.25;;;2.37;100.00
17781;BME280;8498;52.516;13.790;2024-01-27T22:10:45;103056.81;;;2.22;100.00
17781;BME280;8498;52.516;13.790;2024-01-27T22:16:07;103061.09;;;2.10;100.00
17781;BME280;8498;52.516;13.790;2024-01-27T22:21:29;103063.75;;;2.14;100.00
17781;BME280;8498;52.516;13.790;2024-01-27T22:26:51;103055.03;;;2.18;100.00
17781;BME280;8498;52.516;13.790;2024-01-27T22:32:13;103062.03;;;2.16;100.00
17781;BME280;8498;52.516;13.790;2024-01-27T22:37:35;103057.66;;;2.15;100.00
17781;BME280;8498;52.516;13.790;2024-01-27T22:42:58;103069.00;;;2.14;100.00
17781;BME280;8498;52.516;13.790;2024-01-27T22:48:20;103069.88;;;2.12;100.00
17781;BME280;8498;52.516;13.790;2024-01-27T22:53:42;103074.22;;;2.11;100.00
17781;BME280;8498;52.516;13.790;2024-01-27T22:59:04;103070.72;;;2.09;100.00
17781;BME280;8498;52.516;13.790;2024-01-27T23:04:26;103056.75;;;2.13;100.00
17781;BME280;8498;52.516;13.790;2024-01-27T23:09:48;103069.00;;;2.14;100.00
17781;BME280;8498;52.516;13.790;2024-01-27T23:15:11;103063.75;;;2.11;100.00
17781;BME280;8498;52.516;13.790;2024-01-27T23:20:33;103072.41;;;1.95;100.00
17781;BME280;8498;52.516;13.790;2024-01-27T23:25:56;103067.16;;;1.98;100.00
17781;BME280;8498;52.516;13.790;2024-01-27T23:31:18;103069.81;;;1.97;100.00
17781;BME280;8498;52.516;13.790;2024-01-27T23:36:40;103074.19;;;2.02;100.00
17781;BME280;8498;52.516;13.790;2024-01-27T23:42:02;103057.63;;;2.06;100.00
17781;BME280;8498;52.516;13.790;2024-01-27T23:47:24;103054.88;;;1.88;100.00
17781;BME280;8498;52.516;13.790;2024-01-27T23:52:47;103053.13;;;1.87;100.00
17781;BME280;8498;52.516;13.790;2024-01-27T23:58:11;103057.44;;;1.76;100.00
